createdAt,value
2023-10-29T00:00:39.501Z,15.10
2023-10-29T00:03:08.767Z,15.00
2023-10-29T00:05:35.595Z,15.00
2023-10-29T00:08:02.281Z,15.10
2023-10-29T00:10:28.978Z,15.20
2023-10-29T00:12:55.905Z,15.10
2023-10-29T00:15:22.884Z,15.20
2023-10-29T00:17:50.282Z,15.10
2023-10-29T00:20:19.853Z,15.10
2023-10-29T00:22:46.536Z,15.10
2023-10-29T00:25:13.212Z,15.00
2023-10-29T00:27:40.047Z,15.10
2023-10-29T00:30:07.462Z,15.10
2023-10-29T00:32:34.229Z,15.10
2023-10-29T00:35:03.227Z,15.20
2023-10-29T00:37:29.903Z,15.20
2023-10-29T00:39:56.559Z,15.30
2023-10-29T00:42:25.664Z,15.30
2023-10-29T00:44:54.629Z,15.30
2023-10-29T00:47:21.359Z,15.40
2023-10-29T00:49:49.470Z,15.30
2023-10-29T00:52:16.597Z,15.40
2023-10-29T00:54:43.547Z,15.50
2023-10-29T00:57:12.642Z,15.50
2023-10-29T00:59:42.561Z,15.60
2023-10-29T01:02:14.320Z,15.60
2023-10-29T01:04:41.122Z,15.70
2023-10-29T01:07:07.796Z,15.70
2023-10-29T01:09:35.034Z,15.80
2023-10-29T01:12:06.392Z,15.60
2023-10-29T01:14:35.352Z,15.80
2023-10-29T01:17:04.746Z,15.80
2023-10-29T01:19:33.825Z,15.80
2023-10-29T01:22:00.724Z,15.80
2023-10-29T01:24:28.244Z,15.90
2023-10-29T01:26:57.448Z,15.70
2023-10-29T01:29:24.174Z,15.70
2023-10-29T01:31:53.515Z,15.70
2023-10-29T01:34:20.198Z,15.80
2023-10-29T01:36:49.261Z,15.70
2023-10-29T01:39:16.073Z,15.80
2023-10-29T01:41:43.013Z,15.70
2023-10-29T01:44:12.274Z,15.70
2023-10-29T01:46:39.010Z,15.80
2023-10-29T01:49:10.467Z,15.90
2023-10-29T01:51:37.291Z,15.80
2023-10-29T01:54:04.467Z,15.80
2023-10-29T01:56:31.325Z,15.80
2023-10-29T01:58:58.948Z,15.80
2023-10-29T02:01:25.658Z,15.90
2023-10-29T02:03:52.582Z,16.00
2023-10-29T02:06:22.544Z,15.90
2023-10-29T02:08:49.340Z,15.90
2023-10-29T02:11:16.115Z,15.80
2023-10-29T02:13:42.772Z,15.80
2023-10-29T02:16:10.246Z,15.80
2023-10-29T02:18:37.332Z,15.80
2023-10-29T02:21:08.842Z,15.80
2023-10-29T02:23:35.709Z,15.80
2023-10-29T02:26:07.526Z,15.80
2023-10-29T02:28:36.473Z,15.80
2023-10-29T02:31:07.918Z,15.80
2023-10-29T02:33:34.649Z,15.70
2023-10-29T02:36:01.434Z,15.70
2023-10-29T02:38:28.169Z,15.70
2023-10-29T02:40:54.834Z,15.80
2023-10-29T02:43:21.502Z,15.80
2023-10-29T02:45:48.245Z,15.80
2023-10-29T02:48:15.021Z,15.80
2023-10-29T02:50:43.998Z,15.90
2023-10-29T02:53:13.791Z,16.10
2023-10-29T02:55:40.542Z,15.90
2023-10-29T02:58:07.202Z,15.90
2023-10-29T03:00:34.271Z,16.00
2023-10-29T03:03:01.115Z,15.90
2023-10-29T03:05:27.926Z,16.00
2023-10-29T03:07:54.822Z,15.90
2023-10-29T03:10:21.520Z,15.90
2023-10-29T03:12:50.668Z,15.90
2023-10-29T03:15:17.462Z,16.10
2023-10-29T03:17:46.616Z,16.10
2023-10-29T03:20:13.496Z,16.00
2023-10-29T03:22:40.508Z,16.10
2023-10-29T03:25:08.015Z,16.20
2023-10-29T03:27:37.304Z,16.20
2023-10-29T03:30:04.383Z,16.10
2023-10-29T03:32:31.134Z,16.10
2023-10-29T03:34:57.817Z,16.10
2023-10-29T03:37:25.395Z,16.10
2023-10-29T03:39:52.182Z,16.10
2023-10-29T03:42:18.916Z,16.10
2023-10-29T03:44:46.118Z,16.10
2023-10-29T03:47:13.004Z,16.10
2023-10-29T03:49:43.140Z,16.10
2023-10-29T03:52:09.788Z,16.10
2023-10-29T03:54:36.473Z,16.10
2023-10-29T03:57:03.336Z,16.10
2023-10-29T03:59:30.051Z,16.10
2023-10-29T04:01:59.067Z,16.10
2023-10-29T04:04:25.875Z,16.10
2023-10-29T04:06:52.692Z,16.20
2023-10-29T04:09:19.741Z,16.10
2023-10-29T04:11:46.601Z,16.10
2023-10-29T04:14:13.281Z,16.20
2023-10-29T04:16:40.060Z,16.20
2023-10-29T04:19:09.001Z,16.10
2023-10-29T04:21:38.263Z,16.00
2023-10-29T04:24:05.409Z,16.00
2023-10-29T04:26:35.164Z,16.10
2023-10-29T04:29:01.878Z,16.10
2023-10-29T04:31:33.598Z,16.10
2023-10-29T04:34:00.412Z,16.10
2023-10-29T04:36:27.220Z,16.00
2023-10-29T04:38:53.962Z,16.10
2023-10-29T04:41:20.713Z,16.20
2023-10-29T04:43:47.610Z,16.20
2023-10-29T04:46:14.469Z,16.20
2023-10-29T04:48:42.208Z,16.30
2023-10-29T04:51:11.342Z,16.30
2023-10-29T04:53:40.747Z,16.20
2023-10-29T04:56:07.538Z,16.20
2023-10-29T04:58:34.286Z,16.10
2023-10-29T05:01:04.109Z,16.10
2023-10-29T05:03:30.875Z,16.10
2023-10-29T05:05:57.777Z,16.20
2023-10-29T05:08:24.496Z,16.30
2023-10-29T05:10:51.137Z,16.30
2023-10-29T05:13:17.873Z,16.30
2023-10-29T05:15:44.750Z,16.30
2023-10-29T05:18:13.764Z,16.40
2023-10-29T05:20:42.829Z,16.20
2023-10-29T05:23:09.537Z,16.40
2023-10-29T05:25:40.334Z,16.30
2023-10-29T05:28:14.366Z,16.40
2023-10-29T05:30:41.108Z,16.40
2023-10-29T05:33:07.960Z,16.30
2023-10-29T05:35:34.969Z,16.30
2023-10-29T05:38:03.951Z,16.30
2023-10-29T05:40:30.728Z,16.40
2023-10-29T05:42:57.398Z,16.30
2023-10-29T05:45:26.279Z,16.30
2023-10-29T05:47:53.122Z,16.30
2023-10-29T05:50:23.466Z,16.40
2023-10-29T05:52:53.224Z,16.20
2023-10-29T05:55:23.532Z,16.20
2023-10-29T05:57:53.360Z,16.20
2023-10-29T06:00:20.246Z,16.40
2023-10-29T06:02:47.262Z,16.30
2023-10-29T06:05:16.916Z,16.20
2023-10-29T06:07:45.702Z,16.10
2023-10-29T06:10:14.134Z,16.20
2023-10-29T06:12:44.322Z,16.10
2023-10-29T06:15:12.299Z,16.20
2023-10-29T06:17:46.081Z,16.40
2023-10-29T06:20:18.123Z,16.20
2023-10-29T06:22:45.813Z,16.30
2023-10-29T06:25:12.570Z,16.20
2023-10-29T06:27:39.263Z,16.20
2023-10-29T06:30:07.846Z,16.20
2023-10-29T06:32:36.823Z,16.20
2023-10-29T06:35:07.713Z,16.20
2023-10-29T06:37:34.477Z,16.20
2023-10-29T06:40:04.148Z,16.10
2023-10-29T06:42:33.377Z,16.30
2023-10-29T06:45:00.118Z,16.20
2023-10-29T06:47:26.848Z,16.40
2023-10-29T06:49:55.447Z,16.30
2023-10-29T06:52:24.586Z,16.20
2023-10-29T06:54:54.670Z,16.30
2023-10-29T06:57:21.372Z,16.30
2023-10-29T06:59:48.067Z,16.20
2023-10-29T07:02:16.924Z,16.40
2023-10-29T07:04:43.793Z,16.40
2023-10-29T07:07:12.346Z,16.30
2023-10-29T07:09:39.081Z,16.20
2023-10-29T07:12:06.282Z,16.40
2023-10-29T07:14:35.493Z,16.50
2023-10-29T07:17:06.721Z,16.40
2023-10-29T07:19:33.407Z,16.40
2023-10-29T07:22:04.531Z,16.40
2023-10-29T07:24:36.153Z,16.30
2023-10-29T07:27:03.543Z,16.30
2023-10-29T07:29:30.417Z,16.40
2023-10-29T07:31:57.478Z,16.30
2023-10-29T07:34:26.911Z,16.40
2023-10-29T07:36:53.730Z,16.20
2023-10-29T07:39:20.497Z,16.10
2023-10-29T07:41:47.175Z,16.00
2023-10-29T07:44:13.869Z,16.10
2023-10-29T07:46:40.569Z,16.10
2023-10-29T07:49:09.566Z,16.10
2023-10-29T07:51:38.422Z,16.10
2023-10-29T07:54:05.420Z,16.10
2023-10-29T07:56:32.224Z,16.00
2023-10-29T07:58:58.958Z,16.00
2023-10-29T08:01:28.074Z,16.10
2023-10-29T08:03:57.216Z,16.10
2023-10-29T08:06:24.339Z,16.00
2023-10-29T08:08:53.643Z,15.80
2023-10-29T08:11:23.294Z,15.80
2023-10-29T08:13:51.434Z,16.00
2023-10-29T08:16:20.710Z,16.10
2023-10-29T08:18:47.767Z,16.30
2023-10-29T08:21:14.641Z,16.20
2023-10-29T08:23:43.961Z,16.10
2023-10-29T08:26:13.486Z,16.10
2023-10-29T08:28:40.294Z,16.10
2023-10-29T08:31:09.298Z,15.90
2023-10-29T08:33:36.184Z,16.00
2023-10-29T08:36:03.324Z,15.90
2023-10-29T08:38:32.294Z,15.80
2023-10-29T08:40:58.981Z,15.90
2023-10-29T08:43:25.795Z,15.90
2023-10-29T08:45:52.682Z,15.80
2023-10-29T08:48:19.518Z,15.80
2023-10-29T08:50:46.321Z,15.90
2023-10-29T08:53:13.104Z,15.90
2023-10-29T08:55:39.814Z,16.00
2023-10-29T08:58:10.675Z,16.10
2023-10-29T09:00:46.070Z,16.10
2023-10-29T09:03:17.203Z,16.10
2023-10-29T09:05:44.656Z,16.10
2023-10-29T09:08:12.031Z,16.10
2023-10-29T09:10:43.290Z,16.10
2023-10-29T09:13:11.005Z,16.20
2023-10-29T09:15:37.743Z,16.40
2023-10-29T09:18:04.643Z,16.50
2023-10-29T09:20:32.744Z,16.20
2023-10-29T09:22:59.488Z,16.20
2023-10-29T09:25:26.151Z,16.20
2023-10-29T09:27:55.024Z,16.30
2023-10-29T09:30:24.245Z,16.40
2023-10-29T09:32:50.968Z,16.50
2023-10-29T09:35:18.701Z,16.60
2023-10-29T09:37:45.425Z,16.60
2023-10-29T09:40:15.356Z,16.50
2023-10-29T09:42:54.666Z,16.30
2023-10-29T09:45:28.418Z,16.30
2023-10-29T09:47:59.932Z,16.30
2023-10-29T09:50:29.335Z,16.30
2023-10-29T09:52:56.119Z,16.50
2023-10-29T09:55:26.297Z,16.60
2023-10-29T09:57:55.556Z,16.50
2023-10-29T10:00:27.147Z,16.40
2023-10-29T10:02:54.895Z,16.40
2023-10-29T10:05:23.010Z,16.60
2023-10-29T10:07:50.783Z,16.50
2023-10-29T10:10:22.218Z,16.40
2023-10-29T10:12:51.900Z,16.60
2023-10-29T10:15:21.758Z,16.70
2023-10-29T10:17:59.740Z,16.80
2023-10-29T10:20:27.108Z,16.80
2023-10-29T10:23:04.853Z,16.80
2023-10-29T10:25:35.075Z,16.70
2023-10-29T10:28:07.712Z,16.80
2023-10-29T10:30:41.094Z,16.90
2023-10-29T10:33:20.026Z,16.80
2023-10-29T10:35:51.918Z,16.90
2023-10-29T10:38:35.520Z,17.10
2023-10-29T10:41:02.377Z,17.10
2023-10-29T10:43:29.308Z,17.00
2023-10-29T10:45:58.749Z,16.90
2023-10-29T10:48:28.923Z,16.90
2023-10-29T10:50:58.597Z,16.90
2023-10-29T10:53:26.400Z,16.90
2023-10-29T10:56:03.022Z,17.00
2023-10-29T10:58:32.074Z,16.90
2023-10-29T11:01:00.066Z,17.00
2023-10-29T11:03:33.353Z,17.00
2023-10-29T11:06:01.155Z,17.00
2023-10-29T11:08:28.344Z,17.10
2023-10-29T11:10:59.208Z,17.10
2023-10-29T11:13:27.522Z,17.20
2023-10-29T11:15:54.540Z,17.20
2023-10-29T11:18:33.408Z,17.20
2023-10-29T11:21:01.597Z,17.30
2023-10-29T11:23:33.089Z,17.20
2023-10-29T11:26:21.983Z,17.20
2023-10-29T11:28:53.883Z,17.40
2023-10-29T11:31:22.484Z,17.60
2023-10-29T11:34:11.770Z,17.50
2023-10-29T11:36:41.357Z,17.50
2023-10-29T11:39:24.046Z,17.40
2023-10-29T11:41:52.635Z,17.30
2023-10-29T11:44:19.505Z,17.20
2023-10-29T11:47:07.732Z,17.10
2023-10-29T11:49:43.382Z,17.10
2023-10-29T11:52:10.099Z,17.10
2023-10-29T11:54:40.098Z,17.10
2023-10-29T11:57:07.768Z,17.00
2023-10-29T11:59:34.485Z,16.90
2023-10-29T12:02:01.307Z,16.70
2023-10-29T12:04:34.469Z,16.80
2023-10-29T12:07:01.262Z,16.70
2023-10-29T12:09:35.990Z,16.60
2023-10-29T12:12:10.555Z,16.50
2023-10-29T12:14:43.704Z,16.40
2023-10-29T12:17:11.458Z,16.40
2023-10-29T12:19:39.749Z,16.30
2023-10-29T12:22:25.579Z,16.20
2023-10-29T12:24:56.423Z,16.30
2023-10-29T12:27:23.988Z,16.10
2023-10-29T12:29:51.633Z,16.20
2023-10-29T12:32:20.308Z,16.00
2023-10-29T12:34:58.110Z,16.10
2023-10-29T12:37:31.666Z,16.30
2023-10-29T12:40:02.784Z,16.20
2023-10-29T12:42:54.278Z,16.10
2023-10-29T12:45:28.404Z,16.20
2023-10-29T12:48:14.362Z,16.20
2023-10-29T12:50:54.101Z,16.40
2023-10-29T12:53:27.361Z,16.40
2023-10-29T12:55:55.308Z,16.50
2023-10-29T12:58:22.414Z,16.50
2023-10-29T13:00:56.935Z,16.50
2023-10-29T13:03:24.857Z,16.50
2023-10-29T13:05:55.598Z,16.60
2023-10-29T13:08:25.342Z,16.50
2023-10-29T13:10:53.544Z,16.50
2023-10-29T13:13:20.807Z,16.60
2023-10-29T13:15:47.576Z,16.50
2023-10-29T13:18:15.700Z,16.60
2023-10-29T13:20:44.865Z,16.60
2023-10-29T13:23:11.612Z,16.60
2023-10-29T13:25:40.547Z,16.60
2023-10-29T13:28:09.987Z,16.50
2023-10-29T13:30:37.063Z,16.50
2023-10-29T13:33:03.968Z,16.50
2023-10-29T13:35:31.708Z,16.60
2023-10-29T13:38:00.888Z,16.50
2023-10-29T13:40:32.425Z,16.50
2023-10-29T13:43:01.585Z,16.60
2023-10-29T13:45:30.731Z,16.60
2023-10-29T13:47:57.494Z,16.60
2023-10-29T13:50:24.238Z,16.60
2023-10-29T13:52:53.430Z,16.60
2023-10-29T13:55:24.269Z,16.60
2023-10-29T13:57:50.929Z,16.60
2023-10-29T14:00:18.235Z,16.70
2023-10-29T14:02:45.097Z,16.80
2023-10-29T14:05:13.380Z,16.90
2023-10-29T14:07:45.151Z,16.80
2023-10-29T14:10:15.425Z,16.70
2023-10-29T14:12:46.468Z,16.60
2023-10-29T14:15:13.252Z,16.60
2023-10-29T14:17:43.280Z,16.60
2023-10-29T14:20:10.926Z,16.70
2023-10-29T14:22:37.875Z,16.80
2023-10-29T14:25:08.788Z,16.80
2023-10-29T14:27:35.653Z,16.80
2023-10-29T14:30:02.392Z,16.90
2023-10-29T14:32:31.586Z,16.90
2023-10-29T14:34:58.451Z,16.90
2023-10-29T14:37:25.105Z,16.90
2023-10-29T14:39:51.845Z,16.70
2023-10-29T14:42:18.584Z,16.70
2023-10-29T14:44:45.335Z,16.60
2023-10-29T14:47:14.246Z,16.60
2023-10-29T14:49:40.937Z,16.70
2023-10-29T14:52:07.622Z,16.70
2023-10-29T14:54:34.316Z,17.00
2023-10-29T14:57:13.812Z,17.10
2023-10-29T14:59:50.182Z,17.00
2023-10-29T15:02:16.866Z,17.00
2023-10-29T15:04:43.605Z,17.00
2023-10-29T15:07:10.401Z,17.00
2023-10-29T15:09:39.328Z,17.00
2023-10-29T15:12:07.547Z,17.00
2023-10-29T15:14:34.793Z,17.10
2023-10-29T15:17:01.494Z,17.00
2023-10-29T15:19:36.530Z,16.90
2023-10-29T15:22:03.955Z,16.80
2023-10-29T15:24:32.908Z,16.70
2023-10-29T15:26:59.649Z,16.80
2023-10-29T15:29:26.356Z,16.80
2023-10-29T15:31:53.117Z,16.70
2023-10-29T15:34:19.860Z,16.70
2023-10-29T15:36:46.761Z,16.70
2023-10-29T15:39:13.911Z,16.80
2023-10-29T15:41:43.379Z,16.70
2023-10-29T15:44:10.203Z,16.70
2023-10-29T15:46:38.006Z,16.70
2023-10-29T15:49:04.915Z,16.60
2023-10-29T15:51:31.774Z,16.60
2023-10-29T15:53:58.603Z,16.60
2023-10-29T15:56:27.407Z,16.70
2023-10-29T15:58:54.443Z,16.70
2023-10-29T16:01:21.253Z,16.80
2023-10-29T16:03:48.722Z,16.70
2023-10-29T16:06:17.848Z,16.60
2023-10-29T16:08:44.619Z,16.50
2023-10-29T16:11:22.449Z,16.60
2023-10-29T16:13:51.983Z,16.60
2023-10-29T16:16:18.868Z,16.50
2023-10-29T16:18:45.671Z,16.50
2023-10-29T16:21:12.459Z,16.60
2023-10-29T16:23:41.702Z,16.60
2023-10-29T16:26:08.432Z,16.60
2023-10-29T16:28:35.157Z,16.60
2023-10-29T16:31:01.839Z,16.40
2023-10-29T16:33:28.731Z,16.50
2023-10-29T16:35:56.581Z,16.50
2023-10-29T16:38:23.511Z,16.50
2023-10-29T16:40:54.932Z,16.40
2023-10-29T16:43:22.182Z,16.40
2023-10-29T16:45:48.907Z,16.30
2023-10-29T16:48:16.001Z,16.50
2023-10-29T16:50:59.827Z,16.50
2023-10-29T16:53:29.817Z,16.50
2023-10-29T16:56:04.108Z,16.50
2023-10-29T16:58:30.841Z,16.40
2023-10-29T17:00:57.530Z,16.30
2023-10-29T17:03:24.355Z,16.30
2023-10-29T17:05:51.231Z,16.40
2023-10-29T17:08:18.054Z,16.30
2023-10-29T17:10:47.192Z,16.30
2023-10-29T17:13:15.090Z,16.30
2023-10-29T17:15:44.302Z,16.30
2023-10-29T17:18:11.665Z,16.40
2023-10-29T17:20:38.566Z,16.40
2023-10-29T17:23:07.532Z,16.40
2023-10-29T17:25:39.532Z,16.40
2023-10-29T17:28:06.532Z,16.30
2023-10-29T17:30:34.033Z,16.20
2023-10-29T17:33:00.791Z,16.30
2023-10-29T17:35:31.501Z,16.20
2023-10-29T17:37:58.598Z,16.20
2023-10-29T17:40:25.450Z,16.30
2023-10-29T17:42:52.184Z,16.20
2023-10-29T17:45:20.523Z,16.10
2023-10-29T17:47:52.308Z,16.10
2023-10-29T17:50:19.179Z,16.10
2023-10-29T17:52:45.878Z,16.10
2023-10-29T17:55:12.637Z,16.10
2023-10-29T17:57:41.595Z,16.10
2023-10-29T18:00:09.273Z,16.10
2023-10-29T18:02:40.188Z,16.10
2023-10-29T18:05:07.542Z,16.10
2023-10-29T18:07:34.251Z,16.10
2023-10-29T18:10:00.977Z,16.20
2023-10-29T18:12:30.524Z,16.20
2023-10-29T18:14:57.948Z,16.30
2023-10-29T18:17:24.804Z,16.20
2023-10-29T18:19:56.950Z,16.10
2023-10-29T18:22:23.813Z,16.10
2023-10-29T18:24:52.928Z,16.10
2023-10-29T18:27:21.818Z,16.10
2023-10-29T18:29:53.280Z,16.10
2023-10-29T18:32:22.579Z,16.10
2023-10-29T18:34:51.776Z,16.10
2023-10-29T18:37:18.479Z,16.00
2023-10-29T18:39:45.181Z,15.90
2023-10-29T18:42:11.860Z,16.00
2023-10-29T18:44:38.583Z,16.00
2023-10-29T18:47:05.878Z,15.90
2023-10-29T18:49:32.597Z,16.00
2023-10-29T18:52:03.371Z,15.90
2023-10-29T18:54:30.183Z,16.00
2023-10-29T18:57:02.266Z,16.00
2023-10-29T18:59:29.044Z,15.90
2023-10-29T19:01:55.760Z,15.80
2023-10-29T19:04:23.042Z,15.70
2023-10-29T19:06:52.340Z,15.70
2023-10-29T19:09:20.665Z,15.70
2023-10-29T19:11:51.019Z,15.70
2023-10-29T19:14:17.748Z,15.80
2023-10-29T19:16:44.420Z,15.80
2023-10-29T19:19:13.342Z,15.80
2023-10-29T19:21:40.006Z,15.70
2023-10-29T19:24:07.338Z,15.80
2023-10-29T19:26:36.339Z,15.70
2023-10-29T19:29:03.103Z,15.70
2023-10-29T19:31:29.846Z,15.70
2023-10-29T19:33:56.614Z,15.90
2023-10-29T19:36:25.612Z,15.90
2023-10-29T19:38:54.619Z,16.00
2023-10-29T19:41:21.382Z,15.80
2023-10-29T19:43:50.600Z,15.80
2023-10-29T19:46:19.620Z,15.70
2023-10-29T19:48:46.351Z,15.80
2023-10-29T19:51:15.562Z,15.90
2023-10-29T19:53:44.703Z,15.90
2023-10-29T19:56:14.857Z,16.00
2023-10-29T19:58:41.667Z,15.90
2023-10-29T20:01:10.625Z,15.90
2023-10-29T20:03:42.076Z,16.00
2023-10-29T20:06:13.321Z,16.10
2023-10-29T20:08:41.229Z,15.90
2023-10-29T20:11:09.923Z,15.90
2023-10-29T20:13:45.172Z,15.90
2023-10-29T20:16:16.247Z,15.80
2023-10-29T20:18:43.412Z,15.70
2023-10-29T20:21:18.112Z,15.90
2023-10-29T20:23:46.883Z,15.90
2023-10-29T20:26:18.460Z,16.00
2023-10-29T20:28:53.201Z,16.00
2023-10-29T20:31:22.483Z,15.90
2023-10-29T20:33:51.275Z,15.70
2023-10-29T20:36:18.721Z,15.70
2023-10-29T20:38:45.739Z,15.80
2023-10-29T20:41:15.090Z,15.70
2023-10-29T20:43:44.627Z,15.70
2023-10-29T20:46:11.799Z,15.70
2023-10-29T20:48:38.960Z,15.60
2023-10-29T20:51:08.177Z,15.60
2023-10-29T20:53:35.020Z,15.80
2023-10-29T20:56:05.884Z,15.80
2023-10-29T20:58:35.472Z,15.90
2023-10-29T21:01:05.612Z,16.00
2023-10-29T21:03:32.659Z,15.90
2023-10-29T21:06:00.471Z,15.90
2023-10-29T21:08:27.904Z,15.90
2023-10-29T21:11:15.076Z,15.90
2023-10-29T21:13:47.366Z,15.80
2023-10-29T21:16:14.342Z,15.80
2023-10-29T21:18:41.034Z,15.80
2023-10-29T21:21:08.022Z,15.90
2023-10-29T21:23:34.979Z,15.90
2023-10-29T21:26:04.302Z,16.10
2023-10-29T21:28:31.266Z,15.90
2023-10-29T21:30:58.360Z,16.00
2023-10-29T21:33:25.293Z,15.90
2023-10-29T21:35:52.191Z,15.80
2023-10-29T21:38:21.369Z,15.80
2023-10-29T21:40:50.402Z,15.70
2023-10-29T21:43:17.153Z,15.60
2023-10-29T21:45:46.067Z,15.60
2023-10-29T21:48:15.127Z,15.70
2023-10-29T21:50:42.414Z,15.70
2023-10-29T21:53:09.247Z,15.80
2023-10-29T21:55:38.922Z,15.60
2023-10-29T21:58:09.674Z,15.60
2023-10-29T22:00:38.700Z,15.70
2023-10-29T22:03:06.767Z,15.60
2023-10-29T22:05:33.617Z,15.60
2023-10-29T22:08:02.762Z,15.60
2023-10-29T22:10:29.423Z,15.60
2023-10-29T22:13:01.657Z,15.60
2023-10-29T22:15:29.261Z,15.60
2023-10-29T22:17:58.770Z,15.60
2023-10-29T22:20:25.601Z,15.50
2023-10-29T22:22:52.317Z,15.60
2023-10-29T22:25:19.139Z,15.60
2023-10-29T22:27:48.069Z,15.60
2023-10-29T22:30:14.985Z,15.80
2023-10-29T22:32:41.704Z,15.70
2023-10-29T22:35:11.517Z,15.70
2023-10-29T22:37:38.192Z,16.10
2023-10-29T22:40:05.507Z,16.00
2023-10-29T22:42:34.512Z,15.80
2023-10-29T22:45:01.427Z,15.60
2023-10-29T22:47:28.205Z,15.70
2023-10-29T22:49:57.341Z,15.70
2023-10-29T22:52:24.033Z,15.80
2023-10-29T22:54:50.745Z,15.70
2023-10-29T22:57:19.696Z,15.80
2023-10-29T22:59:46.802Z,15.60
2023-10-29T23:02:13.751Z,15.70
2023-10-29T23:04:41.554Z,15.60
2023-10-29T23:07:10.474Z,15.60
2023-10-29T23:09:39.374Z,15.60
2023-10-29T23:12:06.570Z,15.60
2023-10-29T23:14:33.270Z,15.40
2023-10-29T23:16:59.946Z,15.60
2023-10-29T23:19:26.701Z,15.50
2023-10-29T23:21:53.642Z,15.50
2023-10-29T23:24:25.239Z,15.60
2023-10-29T23:26:54.313Z,15.50
2023-10-29T23:29:21.000Z,15.60
2023-10-29T23:31:47.782Z,15.80
2023-10-29T23:34:16.652Z,15.80
2023-10-29T23:36:43.882Z,15.70
2023-10-29T23:39:10.864Z,15.50
2023-10-29T23:41:38.024Z,15.60
2023-10-29T23:44:04.906Z,15.60
2023-10-29T23:46:34.135Z,15.60
2023-10-29T23:49:00.819Z,15.50
2023-10-29T23:51:29.979Z,15.40
2023-10-29T23:53:58.910Z,15.30
2023-10-29T23:56:25.930Z,15.30
2023-10-29T23:58:52.839Z,15.30
